sensor_id;sensor_type;location;lat;lon;timestamp;pressure;altitude;pressure_sealevel;temperature
67599;BMP280;62026;39.230;9.122;2022-11-20T00:01:27;100321.03;;;15.73
67599;BMP280;62026;39.230;9.122;2022-11-20T00:03:56;100323.16;;;15.76
67599;BMP280;62026;39.230;9.122;2022-11-20T00:06:24;100308.78;;;15.72
67599;BMP280;62026;39.230;9.122;2022-11-20T00:08:51;100317.03;;;15.76
67599;BMP280;62026;39.230;9.122;2022-11-20T00:11:22;100317.03;;;15.76
67599;BMP280;62026;39.230;9.122;2022-11-20T00:13:52;100321.34;;;15.77
67599;BMP280;62026;39.230;9.122;2022-11-20T00:16:23;100325.34;;;15.79
67599;BMP280;62026;39.230;9.122;2022-11-20T00:18:50;100321.59;;;15.80
67599;BMP280;62026;39.230;9.122;2022-11-20T00:21:23;100309.38;;;15.79
67599;BMP280;62026;39.230;9.122;2022-11-20T00:23:52;100303.50;;;15.77
67599;BMP280;62026;39.230;9.122;2022-11-20T00:26:20;100296.31;;;15.78
67599;BMP280;62026;39.230;9.122;2022-11-20T00:28:56;100300.88;;;15.83
67599;BMP280;62026;39.230;9.122;2022-11-20T00:31:23;100301.91;;;15.82
67599;BMP280;62026;39.230;9.122;2022-11-20T00:33:49;100293.41;;;15.79
67599;BMP280;62026;39.230;9.122;2022-11-20T00:36:18;100302.72;;;15.82
67599;BMP280;62026;39.230;9.122;2022-11-20T00:38:45;100299.25;;;15.82
67599;BMP280;62026;39.230;9.122;2022-11-20T00:41:15;100305.72;;;15.91
67599;BMP280;62026;39.230;9.122;2022-11-20T00:43:42;100307.03;;;15.88
67599;BMP280;62026;39.230;9.122;2022-11-20T00:46:14;100296.41;;;15.88
67599;BMP280;62026;39.230;9.122;2022-11-20T00:48:41;100302.56;;;15.94
67599;BMP280;62026;39.230;9.122;2022-11-20T00:51:07;100296.66;;;15.92
67599;BMP280;62026;39.230;9.122;2022-11-20T00:53:34;100291.59;;;15.85
67599;BMP280;62026;39.230;9.122;2022-11-20T00:56:09;100279.06;;;15.86
67599;BMP280;62026;39.230;9.122;2022-11-20T00:58:38;100295.63;;;15.93
67599;BMP280;62026;39.230;9.122;2022-11-20T01:03:38;100289.25;;;15.94
67599;BMP280;62026;39.230;9.122;2022-11-20T01:06:10;100288.69;;;15.92
67599;BMP280;62026;39.230;9.122;2022-11-20T01:08:38;100284.41;;;15.86
67599;BMP280;62026;39.230;9.122;2022-11-20T01:11:11;100304.44;;;15.93
67599;BMP280;62026;39.230;9.122;2022-11-20T01:13:38;100295.38;;;15.94
67599;BMP280;62026;39.230;9.122;2022-11-20T01:16:06;100307.59;;;15.90
67599;BMP280;62026;39.230;9.122;2022-11-20T01:18:34;100306.78;;;15.85
67599;BMP280;62026;39.230;9.122;2022-11-20T01:21:06;100310.97;;;15.80
67599;BMP280;62026;39.230;9.122;2022-11-20T01:23:35;100306.97;;;15.78
67599;BMP280;62026;39.230;9.122;2022-11-20T01:26:06;100313.09;;;15.78
67599;BMP280;62026;39.230;9.122;2022-11-20T01:28:32;100344.56;;;15.87
67599;BMP280;62026;39.230;9.122;2022-11-20T01:30:59;100337.63;;;15.86
67599;BMP280;62026;39.230;9.122;2022-11-20T01:33:25;100344.03;;;15.85
67599;BMP280;62026;39.230;9.122;2022-11-20T01:35:52;100344.84;;;15.85
67599;BMP280;62026;39.230;9.122;2022-11-20T01:38:19;100344.84;;;15.85
67599;BMP280;62026;39.230;9.122;2022-11-20T01:40:55;100344.84;;;15.85
67599;BMP280;62026;39.230;9.122;2022-11-20T01:43:21;100342.69;;;15.87
67599;BMP280;62026;39.230;9.122;2022-11-20T01:46:15;100341.59;;;15.83
67599;BMP280;62026;39.230;9.122;2022-11-20T01:51:59;100335.47;;;15.83
67599;BMP280;62026;39.230;9.122;2022-11-20T01:54:36;100336.84;;;15.85
67599;BMP280;62026;39.230;9.122;2022-11-20T01:57:06;100313.34;;;15.77
67599;BMP280;62026;39.230;9.122;2022-11-20T01:59:39;100335.47;;;15.83
67599;BMP280;62026;39.230;9.122;2022-11-20T02:02:07;100336.03;;;15.85
67599;BMP280;62026;39.230;9.122;2022-11-20T02:04:33;100333.34;;;15.79
67599;BMP280;62026;39.230;9.122;2022-11-20T02:07:01;100333.34;;;15.79
67599;BMP280;62026;39.230;9.122;2022-11-20T02:09:28;100336.00;;;15.79
67599;BMP280;62026;39.230;9.122;2022-11-20T02:11:55;100333.81;;;15.76
67599;BMP280;62026;39.230;9.122;2022-11-20T02:14:23;100331.19;;;15.82
67599;BMP280;62026;39.230;9.122;2022-11-20T02:16:50;100336.00;;;15.79
67599;BMP280;62026;39.230;9.122;2022-11-20T02:19:28;100320.47;;;15.71
67599;BMP280;62026;39.230;9.122;2022-11-20T02:22:14;100318.31;;;15.68
67599;BMP280;62026;39.230;9.122;2022-11-20T02:24:46;100329.00;;;15.73
67599;BMP280;62026;39.230;9.122;2022-11-20T02:27:16;100331.13;;;15.71
67599;BMP280;62026;39.230;9.122;2022-11-20T02:29:54;100333.78;;;15.71
67599;BMP280;62026;39.230;9.122;2022-11-20T02:32:33;100326.06;;;15.70
67599;BMP280;62026;39.230;9.122;2022-11-20T02:37:54;100332.19;;;15.75
67599;BMP280;62026;39.230;9.122;2022-11-20T02:40:20;100311.38;;;15.67
67599;BMP280;62026;39.230;9.122;2022-11-20T02:42:48;100315.41;;;15.70
67599;BMP280;62026;39.230;9.122;2022-11-20T02:45:17;100310.34;;;15.68
67599;BMP280;62026;39.230;9.122;2022-11-20T02:47:43;100305.50;;;15.65
67599;BMP280;62026;39.230;9.122;2022-11-20T02:50:09;100309.50;;;15.63
67599;BMP280;62026;39.230;9.122;2022-11-20T02:52:35;100304.19;;;15.63
67599;BMP280;62026;39.230;9.122;2022-11-20T02:55:01;100295.34;;;15.57
67599;BMP280;62026;39.230;9.122;2022-11-20T02:57:27;100296.47;;;15.61
67599;BMP280;62026;39.230;9.122;2022-11-20T02:59:53;100293.81;;;15.61
67599;BMP280;62026;39.230;9.122;2022-11-20T03:02:19;100296.22;;;15.63
67599;BMP280;62026;39.230;9.122;2022-11-20T03:04:46;100303.06;;;15.59
67599;BMP280;62026;39.230;9.122;2022-11-20T03:07:12;100296.16;;;15.58
67599;BMP280;62026;39.230;9.122;2022-11-20T03:09:38;100300.13;;;15.55
67599;BMP280;62026;39.230;9.122;2022-11-20T03:12:05;100291.34;;;15.55
67599;BMP280;62026;39.230;9.122;2022-11-20T03:14:31;100294.00;;;15.55
67599;BMP280;62026;39.230;9.122;2022-11-20T03:16:57;100288.09;;;15.53
67599;BMP280;62026;39.230;9.122;2022-11-20T03:19:24;100286.53;;;15.52
67599;BMP280;62026;39.230;9.122;2022-11-20T03:21:50;100285.44;;;15.53
67599;BMP280;62026;39.230;9.122;2022-11-20T03:24:16;100284.34;;;15.49
67599;BMP280;62026;39.230;9.122;2022-11-20T03:26:42;100279.78;;;15.44
67599;BMP280;62026;39.230;9.122;2022-11-20T03:29:08;100277.72;;;15.46
67599;BMP280;62026;39.230;9.122;2022-11-20T03:31:38;100273.19;;;15.47
67599;BMP280;62026;39.230;9.122;2022-11-20T03:34:08;100284.06;;;15.45
67599;BMP280;62026;39.230;9.122;2022-11-20T03:36:37;100272.81;;;15.38
67599;BMP280;62026;39.230;9.122;2022-11-20T03:39:04;100270.22;;;15.43
67599;BMP280;62026;39.230;9.122;2022-11-20T03:41:36;100277.38;;;15.42
67599;BMP280;62026;39.230;9.122;2022-11-20T03:44:05;100282.44;;;15.39
67599;BMP280;62026;39.230;9.122;2022-11-20T03:46:31;100283.44;;;15.38
67599;BMP280;62026;39.230;9.122;2022-11-20T03:48:57;100267.97;;;15.30
67599;BMP280;62026;39.230;9.122;2022-11-20T03:51:32;100282.97;;;15.41
67599;BMP280;62026;39.230;9.122;2022-11-20T03:54:03;100277.09;;;15.39
67599;BMP280;62026;39.230;9.122;2022-11-20T03:56:33;100283.75;;;15.41
67599;BMP280;62026;39.230;9.122;2022-11-20T03:58:59;100292.25;;;15.38
67599;BMP280;62026;39.230;9.122;2022-11-20T04:01:30;100291.34;;;15.28
67599;BMP280;62026;39.230;9.122;2022-11-20T04:03:57;100298.56;;;15.32
67599;BMP280;62026;39.230;9.122;2022-11-20T04:06:28;100296.16;;;15.31
67599;BMP280;62026;39.230;9.122;2022-11-20T04:08:56;100296.41;;;15.29
67599;BMP280;62026;39.230;9.122;2022-11-20T04:11:32;100311.06;;;15.32
67599;BMP280;62026;39.230;9.122;2022-11-20T04:14:01;100303.31;;;15.30
67599;BMP280;62026;39.230;9.122;2022-11-20T04:16:31;100303.56;;;15.24
67599;BMP280;62026;39.230;9.122;2022-11-20T04:19:01;100304.56;;;15.23
67599;BMP280;62026;39.230;9.122;2022-11-20T04:21:27;100306.22;;;15.24
67599;BMP280;62026;39.230;9.122;2022-11-20T04:23:55;100304.56;;;15.23
67599;BMP280;62026;39.230;9.122;2022-11-20T04:26:24;100301.88;;;15.18
67599;BMP280;62026;39.230;9.122;2022-11-20T04:28:51;100304.78;;;15.16
67599;BMP280;62026;39.230;9.122;2022-11-20T04:31:21;100311.53;;;15.24
67599;BMP280;62026;39.230;9.122;2022-11-20T04:33:48;100313.09;;;15.25
67599;BMP280;62026;39.230;9.122;2022-11-20T04:36:23;100319.50;;;15.24
67599;BMP280;62026;39.230;9.122;2022-11-20T04:38:55;100327.94;;;15.21
67599;BMP280;62026;39.230;9.122;2022-11-20T04:41:25;100319.16;;;15.20
67599;BMP280;62026;39.230;9.122;2022-11-20T04:43:55;100330.13;;;15.24
67599;BMP280;62026;39.230;9.122;2022-11-20T04:46:26;100320.44;;;15.13
67599;BMP280;62026;39.230;9.122;2022-11-20T04:48:53;100328.19;;;15.19
67599;BMP280;62026;39.230;9.122;2022-11-20T04:51:44;100328.47;;;15.18
67599;BMP280;62026;39.230;9.122;2022-11-20T04:54:12;100333.50;;;15.19
67599;BMP280;62026;39.230;9.122;2022-11-20T04:56:37;100323.97;;;15.18
67599;BMP280;62026;39.230;9.122;2022-11-20T04:59:03;100334.31;;;15.20
67599;BMP280;62026;39.230;9.122;2022-11-20T05:01:30;100338.59;;;15.21
67599;BMP280;62026;39.230;9.122;2022-11-20T05:03:56;100329.00;;;15.20
67599;BMP280;62026;39.230;9.122;2022-11-20T05:06:22;100335.41;;;15.19
67599;BMP280;62026;39.230;9.122;2022-11-20T05:08:48;100335.88;;;15.16
67599;BMP280;62026;39.230;9.122;2022-11-20T05:11:19;100327.31;;;15.14
67599;BMP280;62026;39.230;9.122;2022-11-20T05:13:45;100331.56;;;15.09
67599;BMP280;62026;39.230;9.122;2022-11-20T05:16:15;100332.38;;;15.10
67599;BMP280;62026;39.230;9.122;2022-11-20T05:18:42;100340.09;;;15.12
67599;BMP280;62026;39.230;9.122;2022-11-20T05:21:10;100337.97;;;15.14
67599;BMP280;62026;39.230;9.122;2022-11-20T05:23:37;100332.63;;;15.14
67599;BMP280;62026;39.230;9.122;2022-11-20T05:26:05;100336.91;;;15.15
67599;BMP280;62026;39.230;9.122;2022-11-20T05:28:33;100342.22;;;15.15
67599;BMP280;62026;39.230;9.122;2022-11-20T05:31:15;100345.94;;;15.14
67599;BMP280;62026;39.230;9.122;2022-11-20T05:33:43;100339.53;;;15.09
67599;BMP280;62026;39.230;9.122;2022-11-20T05:36:12;100330.94;;;15.02
67599;BMP280;62026;39.230;9.122;2022-11-20T05:38:39;100350.72;;;15.12
67599;BMP280;62026;39.230;9.122;2022-11-20T05:41:11;100353.63;;;15.10
67599;BMP280;62026;39.230;9.122;2022-11-20T05:43:40;100351.47;;;15.07
67599;BMP280;62026;39.230;9.122;2022-11-20T05:46:09;100355.97;;;15.06
67599;BMP280;62026;39.230;9.122;2022-11-20T05:48:36;100360.16;;;15.02
67599;BMP280;62026;39.230;9.122;2022-11-20T05:51:05;100356.16;;;15.00
67599;BMP280;62026;39.230;9.122;2022-11-20T05:53:34;100362.81;;;15.02
67599;BMP280;62026;39.230;9.122;2022-11-20T05:56:10;100363.94;;;15.06
67599;BMP280;62026;39.230;9.122;2022-11-20T05:58:37;100375.88;;;15.04
67599;BMP280;62026;39.230;9.122;2022-11-20T06:01:11;100369.75;;;15.03
67599;BMP280;62026;39.230;9.122;2022-11-20T06:03:38;100377.16;;;15.01
67599;BMP280;62026;39.230;9.122;2022-11-20T06:06:05;100377.16;;;15.01
67599;BMP280;62026;39.230;9.122;2022-11-20T06:08:32;100385.13;;;15.01
67599;BMP280;62026;39.230;9.122;2022-11-20T06:10:58;100392.06;;;15.02
67599;BMP280;62026;39.230;9.122;2022-11-20T06:13:28;100385.38;;;15.00
67599;BMP280;62026;39.230;9.122;2022-11-20T06:15:54;100393.34;;;15.00
67599;BMP280;62026;39.230;9.122;2022-11-20T06:18:20;100396.00;;;15.00
67599;BMP280;62026;39.230;9.122;2022-11-20T06:20:46;100399.16;;;14.97
67599;BMP280;62026;39.230;9.122;2022-11-20T06:23:13;100403.13;;;14.94
67599;BMP280;62026;39.230;9.122;2022-11-20T06:25:43;100405.19;;;14.92
67599;BMP280;62026;39.230;9.122;2022-11-20T06:28:09;100412.72;;;14.95
67599;BMP280;62026;39.230;9.122;2022-11-20T06:30:36;100407.13;;;14.97
67599;BMP280;62026;39.230;9.122;2022-11-20T06:33:02;100411.16;;;14.99
67599;BMP280;62026;39.230;9.122;2022-11-20T06:35:28;100404.75;;;14.95
67599;BMP280;62026;39.230;9.122;2022-11-20T06:37:55;100409.78;;;14.97
67599;BMP280;62026;39.230;9.122;2022-11-20T06:40:21;100418.81;;;14.96
67599;BMP280;62026;39.230;9.122;2022-11-20T06:42:48;100423.34;;;14.95
67599;BMP280;62026;39.230;9.122;2022-11-20T06:45:14;100419.09;;;14.94
67599;BMP280;62026;39.230;9.122;2022-11-20T06:47:39;100421.97;;;14.93
67599;BMP280;62026;39.230;9.122;2022-11-20T06:50:06;100437.09;;;14.92
67599;BMP280;62026;39.230;9.122;2022-11-20T06:52:33;100433.16;;;14.95
67599;BMP280;62026;39.230;9.122;2022-11-20T06:54:59;100432.91;;;14.96
67599;BMP280;62026;39.230;9.122;2022-11-20T06:57:24;100440.25;;;14.89
67599;BMP280;62026;39.230;9.122;2022-11-20T06:59:51;100437.84;;;14.88
67599;BMP280;62026;39.230;9.122;2022-11-20T07:02:17;100432.78;;;14.86
67599;BMP280;62026;39.230;9.122;2022-11-20T07:04:43;100437.84;;;14.88
67599;BMP280;62026;39.230;9.122;2022-11-20T07:07:08;100460.56;;;14.95
67599;BMP280;62026;39.230;9.122;2022-11-20T07:09:34;100457.78;;;14.90
67599;BMP280;62026;39.230;9.122;2022-11-20T07:12:00;100464.78;;;14.96
67599;BMP280;62026;39.230;9.122;2022-11-20T07:14:26;100476.75;;;14.94
67599;BMP280;62026;39.230;9.122;2022-11-20T07:16:52;100485.75;;;14.93
67599;BMP280;62026;39.230;9.122;2022-11-20T07:19:18;100482.50;;;14.91
67599;BMP280;62026;39.230;9.122;2022-11-20T07:21:44;100496.75;;;15.01
67599;BMP280;62026;39.230;9.122;2022-11-20T07:24:10;100504.09;;;15.11
67599;BMP280;62026;39.230;9.122;2022-11-20T07:26:36;100503.66;;;15.19
67599;BMP280;62026;39.230;9.122;2022-11-20T07:29:02;100503.34;;;15.54
67599;BMP280;62026;39.230;9.122;2022-11-20T07:31:29;100501.69;;;15.75
67599;BMP280;62026;39.230;9.122;2022-11-20T07:33:55;100508.56;;;15.93
67599;BMP280;62026;39.230;9.122;2022-11-20T07:36:21;100503.41;;;16.08
67599;BMP280;62026;39.230;9.122;2022-11-20T07:38:46;100503.50;;;16.18
67599;BMP280;62026;39.230;9.122;2022-11-20T07:41:12;100513.75;;;16.31
67599;BMP280;62026;39.230;9.122;2022-11-20T07:43:38;100502.56;;;16.34
67599;BMP280;62026;39.230;9.122;2022-11-20T07:46:04;100497.31;;;16.44
67599;BMP280;62026;39.230;9.122;2022-11-20T07:48:30;100491.41;;;16.37
67599;BMP280;62026;39.230;9.122;2022-11-20T07:50:57;100493.63;;;16.45
67599;BMP280;62026;39.230;9.122;2022-11-20T07:53:23;100507.72;;;16.78
67599;BMP280;62026;39.230;9.122;2022-11-20T07:55:50;100507.03;;;16.98
67599;BMP280;62026;39.230;9.122;2022-11-20T07:58:19;100507.38;;;17.01
67599;BMP280;62026;39.230;9.122;2022-11-20T08:00:46;100513.84;;;17.15
67599;BMP280;62026;39.230;9.122;2022-11-20T08:03:12;100514.66;;;17.16
67599;BMP280;62026;39.230;9.122;2022-11-20T08:05:38;100523.50;;;17.32
67599;BMP280;62026;39.230;9.122;2022-11-20T08:08:04;100515.50;;;17.37
67599;BMP280;62026;39.230;9.122;2022-11-20T08:10:32;100519.34;;;17.56
67599;BMP280;62026;39.230;9.122;2022-11-20T08:12:58;100518.28;;;17.62
67599;BMP280;62026;39.230;9.122;2022-11-20T08:15:50;100521.50;;;17.64
67599;BMP280;62026;39.230;9.122;2022-11-20T08:18:17;100525.25;;;17.73
67599;BMP280;62026;39.230;9.122;2022-11-20T08:20:44;100528.75;;;17.79
67599;BMP280;62026;39.230;9.122;2022-11-20T08:23:10;100533.88;;;17.90
67599;BMP280;62026;39.230;9.122;2022-11-20T08:25:38;100531.72;;;17.98
67599;BMP280;62026;39.230;9.122;2022-11-20T08:28:09;100524.53;;;17.93
67599;BMP280;62026;39.230;9.122;2022-11-20T08:30:36;100529.84;;;17.83
67599;BMP280;62026;39.230;9.122;2022-11-20T08:33:08;100530.22;;;17.39
67599;BMP280;62026;39.230;9.122;2022-11-20T08:35:36;100541.56;;;17.19
67599;BMP280;62026;39.230;9.122;2022-11-20T08:38:05;100541.53;;;17.09
67599;BMP280;62026;39.230;9.122;2022-11-20T08:40:31;100547.88;;;17.03
67599;BMP280;62026;39.230;9.122;2022-11-20T08:42:57;100547.03;;;16.93
67599;BMP280;62026;39.230;9.122;2022-11-20T08:45:24;100556.06;;;16.92
67599;BMP280;62026;39.230;9.122;2022-11-20T08:47:50;100552.63;;;16.96
67599;BMP280;62026;39.230;9.122;2022-11-20T08:50:17;100559.34;;;17.46
67599;BMP280;62026;39.230;9.122;2022-11-20T08:52:43;100537.75;;;17.58
67599;BMP280;62026;39.230;9.122;2022-11-20T08:55:10;100558.97;;;17.84
67599;BMP280;62026;39.230;9.122;2022-11-20T08:57:37;100559.22;;;17.88
67599;BMP280;62026;39.230;9.122;2022-11-20T09:00:06;100557.94;;;17.90
67599;BMP280;62026;39.230;9.122;2022-11-20T09:02:33;100557.38;;;17.94
67599;BMP280;62026;39.230;9.122;2022-11-20T09:04:59;100569.19;;;18.18
67599;BMP280;62026;39.230;9.122;2022-11-20T09:07:29;100568.63;;;18.11
67599;BMP280;62026;39.230;9.122;2022-11-20T09:09:55;100579.31;;;18.11
67599;BMP280;62026;39.230;9.122;2022-11-20T09:12:22;100563.84;;;18.48
67599;BMP280;62026;39.230;9.122;2022-11-20T09:14:47;100580.41;;;18.91
67599;BMP280;62026;39.230;9.122;2022-11-20T09:17:13;100572.31;;;19.21
67599;BMP280;62026;39.230;9.122;2022-11-20T09:19:40;100577.94;;;19.20
67599;BMP280;62026;39.230;9.122;2022-11-20T09:22:07;100579.28;;;19.17
67599;BMP280;62026;39.230;9.122;2022-11-20T09:24:33;100578.09;;;19.49
67599;BMP280;62026;39.230;9.122;2022-11-20T09:27:03;100584.78;;;19.56
67599;BMP280;62026;39.230;9.122;2022-11-20T09:29:29;100583.44;;;19.59
67599;BMP280;62026;39.230;9.122;2022-11-20T09:31:55;100582.59;;;19.68
67599;BMP280;62026;39.230;9.122;2022-11-20T09:34:21;100586.78;;;19.85
67599;BMP280;62026;39.230;9.122;2022-11-20T09:36:47;100590.91;;;19.57
67599;BMP280;62026;39.230;9.122;2022-11-20T09:39:13;100588.31;;;19.42
67599;BMP280;62026;39.230;9.122;2022-11-20T09:42:27;100598.81;;;19.23
67599;BMP280;62026;39.230;9.122;2022-11-20T09:45:21;100578.19;;;19.33
67599;BMP280;62026;39.230;9.122;2022-11-20T09:51:21;100601.47;;;19.43
67599;BMP280;62026;39.230;9.122;2022-11-20T09:56:43;100602.28;;;19.28
67599;BMP280;62026;39.230;9.122;2022-11-20T10:01:48;100600.19;;;19.15
67599;BMP280;62026;39.230;9.122;2022-11-20T10:07:21;100600.41;;;19.19
67599;BMP280;62026;39.230;9.122;2022-11-20T10:09:54;100603.38;;;19.17
67599;BMP280;62026;39.230;9.122;2022-11-20T10:15:34;100589.25;;;19.07
67599;BMP280;62026;39.230;9.122;2022-11-20T10:21:32;100587.63;;;18.80
67599;BMP280;62026;39.230;9.122;2022-11-20T10:29:34;100580.97;;;18.42
67599;BMP280;62026;39.230;9.122;2022-11-20T10:32:09;100586.84;;;18.54
67599;BMP280;62026;39.230;9.122;2022-11-20T10:35:06;100576.91;;;18.09
67599;BMP280;62026;39.230;9.122;2022-11-20T10:37:42;100593.75;;;18.25
67599;BMP280;62026;39.230;9.122;2022-11-20T10:43:21;100587.34;;;18.16
67599;BMP280;62026;39.230;9.122;2022-11-20T10:46:00;100589.50;;;18.14
67599;BMP280;62026;39.230;9.122;2022-11-20T10:48:30;100569.97;;;18.08
67599;BMP280;62026;39.230;9.122;2022-11-20T10:56:53;100570.78;;;18.19
67599;BMP280;62026;39.230;9.122;2022-11-20T11:02:00;100559.53;;;18.02
67599;BMP280;62026;39.230;9.122;2022-11-20T11:04:36;100560.06;;;17.99
67599;BMP280;62026;39.230;9.122;2022-11-20T11:07:35;100560.56;;;17.96
67599;BMP280;62026;39.230;9.122;2022-11-20T11:10:41;100548.28;;;17.84
67599;BMP280;62026;39.230;9.122;2022-11-20T11:13:28;100546.13;;;17.86
67599;BMP280;62026;39.230;9.122;2022-11-20T11:15:55;100554.16;;;17.97
67599;BMP280;62026;39.230;9.122;2022-11-20T11:18:32;100549.34;;;17.88
67599;BMP280;62026;39.230;9.122;2022-11-20T11:21:03;100545.31;;;17.76
67599;BMP280;62026;39.230;9.122;2022-11-20T11:23:41;100550.94;;;17.84
67599;BMP280;62026;39.230;9.122;2022-11-20T11:26:28;100535.97;;;17.78
67599;BMP280;62026;39.230;9.122;2022-11-20T11:29:03;100544.53;;;17.80
67599;BMP280;62026;39.230;9.122;2022-11-20T11:31:33;100545.59;;;17.79
67599;BMP280;62026;39.230;9.122;2022-11-20T11:34:15;100521.47;;;17.59
67599;BMP280;62026;39.230;9.122;2022-11-20T11:36:52;100531.94;;;17.71
67599;BMP280;62026;39.230;9.122;2022-11-20T11:39:20;100522.59;;;17.68
67599;BMP280;62026;39.230;9.122;2022-11-20T11:41:48;100530.06;;;17.71
67599;BMP280;62026;39.230;9.122;2022-11-20T11:44:21;100540.47;;;17.68
67599;BMP280;62026;39.230;9.122;2022-11-20T11:47:25;100548.75;;;17.71
67599;BMP280;62026;39.230;9.122;2022-11-20T11:50:25;100537.78;;;17.63
67599;BMP280;62026;39.230;9.122;2022-11-20T11:53:15;100544.22;;;17.72
67599;BMP280;62026;39.230;9.122;2022-11-20T11:56:09;100546.59;;;17.63
67599;BMP280;62026;39.230;9.122;2022-11-20T11:58:47;100549.81;;;17.65
67599;BMP280;62026;39.230;9.122;2022-11-20T12:01:57;100554.63;;;17.68
67599;BMP280;62026;39.230;9.122;2022-11-20T12:05:01;100542.31;;;17.67
67599;BMP280;62026;39.230;9.122;2022-11-20T12:11:20;100551.16;;;17.68
67599;BMP280;62026;39.230;9.122;2022-11-20T12:16:36;100555.66;;;17.62
67599;BMP280;62026;39.230;9.122;2022-11-20T12:19:10;100549.22;;;17.58
67599;BMP280;62026;39.230;9.122;2022-11-20T12:30:14;100549.19;;;17.48
67599;BMP280;62026;39.230;9.122;2022-11-20T12:36:13;100563.63;;;17.57
67599;BMP280;62026;39.230;9.122;2022-11-20T12:42:05;100570.03;;;17.51
67599;BMP280;62026;39.230;9.122;2022-11-20T12:49:02;100568.94;;;17.47
67599;BMP280;62026;39.230;9.122;2022-11-20T12:51:54;100571.09;;;17.45
67599;BMP280;62026;39.230;9.122;2022-11-20T12:54:59;100553.41;;;17.34
67599;BMP280;62026;39.230;9.122;2022-11-20T13:00:20;100566.25;;;17.47
67599;BMP280;62026;39.230;9.122;2022-11-20T13:03:16;100556.94;;;17.49
67599;BMP280;62026;39.230;9.122;2022-11-20T13:08:40;100570.25;;;17.44
67599;BMP280;62026;39.230;9.122;2022-11-20T13:11:27;100546.19;;;17.34
67599;BMP280;62026;39.230;9.122;2022-11-20T13:19:28;100549.97;;;17.43
67599;BMP280;62026;39.230;9.122;2022-11-20T13:21:55;100550.75;;;17.39
67599;BMP280;62026;39.230;9.122;2022-11-20T13:24:23;100553.44;;;17.44
67599;BMP280;62026;39.230;9.122;2022-11-20T13:29:37;100562.50;;;17.43
67599;BMP280;62026;39.230;9.122;2022-11-20T13:32:13;100545.13;;;17.35
67599;BMP280;62026;39.230;9.122;2022-11-20T13:34:55;100565.75;;;17.45
67599;BMP280;62026;39.230;9.122;2022-11-20T13:37:37;100565.22;;;17.48
67599;BMP280;62026;39.230;9.122;2022-11-20T13:42:44;100566.22;;;17.42
67599;BMP280;62026;39.230;9.122;2022-11-20T13:45:23;100568.59;;;17.33
67599;BMP280;62026;39.230;9.122;2022-11-20T13:47:52;100577.72;;;17.42
67599;BMP280;62026;39.230;9.122;2022-11-20T13:50:19;100575.31;;;17.41
67599;BMP280;62026;39.230;9.122;2022-11-20T14:02:02;100577.72;;;17.42
67599;BMP280;62026;39.230;9.122;2022-11-20T14:04:38;100581.47;;;17.41
67599;BMP280;62026;39.230;9.122;2022-11-20T14:07:08;100584.38;;;17.40
67599;BMP280;62026;39.230;9.122;2022-11-20T14:09:34;100562.72;;;17.26
67599;BMP280;62026;39.230;9.122;2022-11-20T14:12:03;100580.88;;;17.34
67599;BMP280;62026;39.230;9.122;2022-11-20T14:14:33;100593.97;;;17.36
67599;BMP280;62026;39.230;9.122;2022-11-20T14:17:33;100603.84;;;17.35
67599;BMP280;62026;39.230;9.122;2022-11-20T14:20:21;100598.75;;;17.34
67599;BMP280;62026;39.230;9.122;2022-11-20T14:22:53;100602.44;;;17.28
67599;BMP280;62026;39.230;9.122;2022-11-20T14:25:23;100597.63;;;17.25
67599;BMP280;62026;39.230;9.122;2022-11-20T14:27:58;100600.25;;;17.19
67599;BMP280;62026;39.230;9.122;2022-11-20T14:33:12;100604.44;;;17.05
67599;BMP280;62026;39.230;9.122;2022-11-20T14:35:49;100600.72;;;17.06
67599;BMP280;62026;39.230;9.122;2022-11-20T14:38:21;100607.66;;;17.07
67599;BMP280;62026;39.230;9.122;2022-11-20T14:40:48;100609.50;;;17.07
67599;BMP280;62026;39.230;9.122;2022-11-20T14:43:28;100606.84;;;17.07
67599;BMP280;62026;39.230;9.122;2022-11-20T14:46:01;100620.94;;;17.02
67599;BMP280;62026;39.230;9.122;2022-11-20T14:48:38;100625.16;;;16.98
67599;BMP280;62026;39.230;9.122;2022-11-20T14:51:04;100633.75;;;17.00
67599;BMP280;62026;39.230;9.122;2022-11-20T14:53:30;100629.94;;;16.96
67599;BMP280;62026;39.230;9.122;2022-11-20T14:56:02;100641.97;;;16.99
67599;BMP280;62026;39.230;9.122;2022-11-20T14:58:32;100635.81;;;16.93
67599;BMP280;62026;39.230;9.122;2022-11-20T15:01:07;100640.34;;;16.98
67599;BMP280;62026;39.230;9.122;2022-11-20T15:03:40;100651.84;;;16.98
67599;BMP280;62026;39.230;9.122;2022-11-20T15:06:10;100642.81;;;16.99
67599;BMP280;62026;39.230;9.122;2022-11-20T15:08:37;100647.59;;;17.02
67599;BMP280;62026;39.230;9.122;2022-11-20T15:11:17;100653.91;;;16.91
67599;BMP280;62026;39.230;9.122;2022-11-20T15:13:43;100673.69;;;16.95
67599;BMP280;62026;39.230;9.122;2022-11-20T15:16:20;100667.88;;;17.03
67599;BMP280;62026;39.230;9.122;2022-11-20T15:18:47;100680.59;;;16.96
67599;BMP280;62026;39.230;9.122;2022-11-20T15:21:18;100694.28;;;17.00
67599;BMP280;62026;39.230;9.122;2022-11-20T15:23:45;100699.03;;;16.98
67599;BMP280;62026;39.230;9.122;2022-11-20T15:26:14;100694.50;;;16.98
67599;BMP280;62026;39.230;9.122;2022-11-20T15:28:45;100699.56;;;16.95
67599;BMP280;62026;39.230;9.122;2022-11-20T15:31:20;100707.28;;;16.96
67599;BMP280;62026;39.230;9.122;2022-11-20T15:33:47;100714.19;;;16.92
67599;BMP280;62026;39.230;9.122;2022-11-20T15:36:14;100700.34;;;16.95
67599;BMP280;62026;39.230;9.122;2022-11-20T15:38:40;100719.56;;;16.97
67599;BMP280;62026;39.230;9.122;2022-11-20T15:41:07;100714.44;;;16.91
67599;BMP280;62026;39.230;9.122;2022-11-20T15:43:34;100728.59;;;16.96
67599;BMP280;62026;39.230;9.122;2022-11-20T15:46:05;100724.84;;;16.92
67599;BMP280;62026;39.230;9.122;2022-11-20T15:48:38;100725.91;;;16.91
67599;BMP280;62026;39.230;9.122;2022-11-20T15:53:41;100730.22;;;16.97
67599;BMP280;62026;39.230;9.122;2022-11-20T15:56:14;100733.94;;;16.96
67599;BMP280;62026;39.230;9.122;2022-11-20T15:58:41;100728.56;;;16.91